sensor_id;sensor_type;location;lat;lon;timestamp;temperature;humidity
12602;DHT22;30282;16.436;99.370;2022-12-29T00:01:47;18.50;99.90
12602;DHT22;30282;16.436;99.370;2022-12-29T00:04:16;18.40;99.90
12602;DHT22;30282;16.436;99.370;2022-12-29T00:06:45;18.30;99.90
12602;DHT22;30282;16.436;99.370;2022-12-29T00:09:16;18.30;99.90
12602;DHT22;30282;16.436;99.370;2022-12-29T00:11:45;18.20;99.90
12602;DHT22;30282;16.436;99.370;2022-12-29T00:14:14;18.20;99.90
12602;DHT22;30282;16.436;99.370;2022-12-29T00:17:00;18.20;99.90
12602;DHT22;30282;16.436;99.370;2022-12-29T00:19:29;18.20;99.90
12602;DHT22;30282;16.436;99.370;2022-12-29T00:22:15;18.30;99.90
12602;DHT22;30282;16.436;99.370;2022-12-29T00:25:04;18.40;99.90
12602;DHT22;30282;16.436;99.370;2022-12-29T00:27:49;18.40;99.90
12602;DHT22;30282;16.436;99.370;2022-12-29T00:30:36;18.50;99.90
12602;DHT22;30282;16.436;99.370;2022-12-29T00:33:26;18.60;99.90
12602;DHT22;30282;16.436;99.370;2022-12-29T00:36:15;18.60;99.90
12602;DHT22;30282;16.436;99.370;2022-12-29T00:38:48;18.60;99.90
12602;DHT22;30282;16.436;99.370;2022-12-29T00:41:37;18.70;99.90
12602;DHT22;30282;16.436;99.370;2022-12-29T00:44:23;18.70;99.90
12602;DHT22;30282;16.436;99.370;2022-12-29T00:46:52;18.80;99.90
12602;DHT22;30282;16.436;99.370;2022-12-29T00:49:21;18.90;99.90
12602;DHT22;30282;16.436;99.370;2022-12-29T00:51:59;19.00;99.90
12602;DHT22;30282;16.436;99.370;2022-12-29T00:54:29;19.10;99.90
12602;DHT22;30282;16.436;99.370;2022-12-29T00:57:01;19.20;99.90
12602;DHT22;30282;16.436;99.370;2022-12-29T00:59:30;19.30;99.90
12602;DHT22;30282;16.436;99.370;2022-12-29T01:02:01;19.30;99.90
12602;DHT22;30282;16.436;99.370;2022-12-29T01:04:30;19.40;99.90
12602;DHT22;30282;16.436;99.370;2022-12-29T01:06:59;19.50;99.90
12602;DHT22;30282;16.436;99.370;2022-12-29T01:09:28;19.60;99.90
12602;DHT22;30282;16.436;99.370;2022-12-29T01:12:15;19.70;99.90
12602;DHT22;30282;16.436;99.370;2022-12-29T01:15:06;19.80;99.90
12602;DHT22;30282;16.436;99.370;2022-12-29T01:17:35;19.90;99.90
12602;DHT22;30282;16.436;99.370;2022-12-29T01:20:05;19.90;99.90
12602;DHT22;30282;16.436;99.370;2022-12-29T01:22:34;19.90;99.90
12602;DHT22;30282;16.436;99.370;2022-12-29T01:25:04;19.90;99.90
12602;DHT22;30282;16.436;99.370;2022-12-29T01:27:35;20.00;99.90
12602;DHT22;30282;16.436;99.370;2022-12-29T01:30:05;20.10;99.90
12602;DHT22;30282;16.436;99.370;2022-12-29T01:32:34;20.30;99.90
12602;DHT22;30282;16.436;99.370;2022-12-29T01:35:03;20.40;99.90
12602;DHT22;30282;16.436;99.370;2022-12-29T01:37:32;20.60;99.90
12602;DHT22;30282;16.436;99.370;2022-12-29T01:40:01;20.80;99.90
12602;DHT22;30282;16.436;99.370;2022-12-29T01:42:30;20.90;99.90
12602;DHT22;30282;16.436;99.370;2022-12-29T01:45:02;21.00;99.90
12602;DHT22;30282;16.436;99.370;2022-12-29T01:47:34;21.10;99.90
12602;DHT22;30282;16.436;99.370;2022-12-29T01:50:09;21.20;99.90
12602;DHT22;30282;16.436;99.370;2022-12-29T01:52:42;21.40;99.90
12602;DHT22;30282;16.436;99.370;2022-12-29T01:55:13;21.40;99.90
12602;DHT22;30282;16.436;99.370;2022-12-29T01:57:47;21.50;99.90
12602;DHT22;30282;16.436;99.370;2022-12-29T02:00:19;21.60;99.90
12602;DHT22;30282;16.436;99.370;2022-12-29T02:02:51;21.60;99.90
12602;DHT22;30282;16.436;99.370;2022-12-29T02:05:25;21.60;99.90
12602;DHT22;30282;16.436;99.370;2022-12-29T02:07:56;21.60;99.90
12602;DHT22;30282;16.436;99.370;2022-12-29T02:10:27;21.60;99.90
12602;DHT22;30282;16.436;99.370;2022-12-29T02:12:58;21.70;99.90
12602;DHT22;30282;16.436;99.370;2022-12-29T02:15:35;21.70;99.90
12602;DHT22;30282;16.436;99.370;2022-12-29T02:18:22;21.80;99.90
12602;DHT22;30282;16.436;99.370;2022-12-29T02:33:20;22.30;99.90
12602;DHT22;30282;16.436;99.370;2022-12-29T02:35:56;22.50;99.90
12602;DHT22;30282;16.436;99.370;2022-12-29T02:38:40;22.70;99.90
12602;DHT22;30282;16.436;99.370;2022-12-29T02:41:18;22.90;99.90
12602;DHT22;30282;16.436;99.370;2022-12-29T02:43:54;23.10;99.90
12602;DHT22;30282;16.436;99.370;2022-12-29T02:46:32;23.20;99.90
12602;DHT22;30282;16.436;99.370;2022-12-29T02:49:09;23.40;99.90
12602;DHT22;30282;16.436;99.370;2022-12-29T02:51:46;23.50;99.90
12602;DHT22;30282;16.436;99.370;2022-12-29T02:54:17;23.70;99.90
12602;DHT22;30282;16.436;99.370;2022-12-29T02:57:05;23.80;99.90
12602;DHT22;30282;16.436;99.370;2022-12-29T02:59:34;23.90;99.90
12602;DHT22;30282;16.436;99.370;2022-12-29T03:02:16;24.00;99.90
12602;DHT22;30282;16.436;99.370;2022-12-29T03:05:11;24.00;99.90
12602;DHT22;30282;16.436;99.370;2022-12-29T03:07:47;24.10;99.90
12602;DHT22;30282;16.436;99.370;2022-12-29T03:10:28;24.20;99.90
12602;DHT22;30282;16.436;99.370;2022-12-29T03:13:04;24.30;99.90
12602;DHT22;30282;16.436;99.370;2022-12-29T03:15:59;24.30;99.90
12602;DHT22;30282;16.436;99.370;2022-12-29T03:18:41;24.30;99.90
12602;DHT22;30282;16.436;99.370;2022-12-29T03:21:18;24.40;99.90
12602;DHT22;30282;16.436;99.370;2022-12-29T03:23:49;24.40;99.90
12602;DHT22;30282;16.436;99.370;2022-12-29T03:26:19;24.50;99.90
12602;DHT22;30282;16.436;99.370;2022-12-29T03:28:52;24.50;99.90
12602;DHT22;30282;16.436;99.370;2022-12-29T03:31:26;24.60;99.90
12602;DHT22;30282;16.436;99.370;2022-12-29T03:33:56;24.70;99.90
12602;DHT22;30282;16.436;99.370;2022-12-29T03:36:32;24.80;99.90
12602;DHT22;30282;16.436;99.370;2022-12-29T03:39:09;24.90;99.90
12602;DHT22;30282;16.436;99.370;2022-12-29T03:41:42;25.00;99.90
12602;DHT22;30282;16.436;99.370;2022-12-29T03:44:14;25.00;99.90
12602;DHT22;30282;16.436;99.370;2022-12-29T03:46:43;25.10;99.90
12602;DHT22;30282;16.436;99.370;2022-12-29T03:49:13;25.10;99.90
12602;DHT22;30282;16.436;99.370;2022-12-29T03:51:44;25.20;99.90
12602;DHT22;30282;16.436;99.370;2022-12-29T03:54:14;25.20;99.90
12602;DHT22;30282;16.436;99.370;2022-12-29T03:56:42;25.30;99.90
12602;DHT22;30282;16.436;99.370;2022-12-29T03:59:11;25.30;99.90
12602;DHT22;30282;16.436;99.370;2022-12-29T04:01:40;25.40;99.90
12602;DHT22;30282;16.436;99.370;2022-12-29T04:04:09;25.50;99.90
12602;DHT22;30282;16.436;99.370;2022-12-29T04:06:38;25.60;99.90
12602;DHT22;30282;16.436;99.370;2022-12-29T04:09:10;25.70;99.90
12602;DHT22;30282;16.436;99.370;2022-12-29T04:11:39;25.90;99.90
12602;DHT22;30282;16.436;99.370;2022-12-29T04:14:08;26.10;99.90
12602;DHT22;30282;16.436;99.370;2022-12-29T04:16:36;26.20;99.90
12602;DHT22;30282;16.436;99.370;2022-12-29T04:19:06;26.30;99.90
12602;DHT22;30282;16.436;99.370;2022-12-29T04:21:35;26.40;99.90
12602;DHT22;30282;16.436;99.370;2022-12-29T04:24:05;26.60;99.90
12602;DHT22;30282;16.436;99.370;2022-12-29T04:26:39;26.70;99.90
12602;DHT22;30282;16.436;99.370;2022-12-29T04:29:08;26.80;99.90
12602;DHT22;30282;16.436;99.370;2022-12-29T04:31:37;26.90;99.90
12602;DHT22;30282;16.436;99.370;2022-12-29T04:34:07;27.00;99.90
12602;DHT22;30282;16.436;99.370;2022-12-29T04:36:36;27.10;99.90
12602;DHT22;30282;16.436;99.370;2022-12-29T04:39:06;27.20;99.90
12602;DHT22;30282;16.436;99.370;2022-12-29T04:41:37;27.40;99.90
12602;DHT22;30282;16.436;99.370;2022-12-29T04:44:06;27.50;99.90
12602;DHT22;30282;16.436;99.370;2022-12-29T04:46:34;27.60;99.90
12602;DHT22;30282;16.436;99.370;2022-12-29T04:49:03;27.70;99.90
12602;DHT22;30282;16.436;99.370;2022-12-29T04:51:35;27.90;99.90
12602;DHT22;30282;16.436;99.370;2022-12-29T04:54:04;27.90;99.90
12602;DHT22;30282;16.436;99.370;2022-12-29T04:56:33;28.00;99.90
12602;DHT22;30282;16.436;99.370;2022-12-29T04:59:03;28.10;99.90
12602;DHT22;30282;16.436;99.370;2022-12-29T05:01:32;28.20;99.90
12602;DHT22;30282;16.436;99.370;2022-12-29T05:04:01;28.30;99.90
12602;DHT22;30282;16.436;99.370;2022-12-29T05:06:30;28.50;99.90
12602;DHT22;30282;16.436;99.370;2022-12-29T05:08:59;28.60;99.90
12602;DHT22;30282;16.436;99.370;2022-12-29T05:11:28;28.70;99.90
12602;DHT22;30282;16.436;99.370;2022-12-29T05:13:56;28.70;99.90
12602;DHT22;30282;16.436;99.370;2022-12-29T05:16:27;28.90;99.90
12602;DHT22;30282;16.436;99.370;2022-12-29T05:18:56;29.10;99.90
12602;DHT22;30282;16.436;99.370;2022-12-29T05:21:25;29.00;99.90
12602;DHT22;30282;16.436;99.370;2022-12-29T05:23:54;29.00;99.90
12602;DHT22;30282;16.436;99.370;2022-12-29T05:26:23;28.90;99.90
12602;DHT22;30282;16.436;99.370;2022-12-29T05:28:52;29.00;99.90
12602;DHT22;30282;16.436;99.370;2022-12-29T05:31:21;29.10;99.90
12602;DHT22;30282;16.436;99.370;2022-12-29T05:33:51;29.20;99.90
12602;DHT22;30282;16.436;99.370;2022-12-29T05:36:20;29.20;99.90
12602;DHT22;30282;16.436;99.370;2022-12-29T05:38:49;29.30;99.90
12602;DHT22;30282;16.436;99.370;2022-12-29T05:41:18;29.20;99.90
12602;DHT22;30282;16.436;99.370;2022-12-29T05:43:47;29.30;99.90
12602;DHT22;30282;16.436;99.370;2022-12-29T05:46:16;29.30;99.90
12602;DHT22;30282;16.436;99.370;2022-12-29T05:48:45;29.30;99.90
12602;DHT22;30282;16.436;99.370;2022-12-29T05:51:15;29.10;99.90
12602;DHT22;30282;16.436;99.370;2022-12-29T05:53:44;29.00;99.90
12602;DHT22;30282;16.436;99.370;2022-12-29T05:56:13;29.10;99.90
12602;DHT22;30282;16.436;99.370;2022-12-29T05:58:42;29.20;99.90
12602;DHT22;30282;16.436;99.370;2022-12-29T06:01:11;29.30;99.90
12602;DHT22;30282;16.436;99.370;2022-12-29T06:03:40;29.20;99.90
12602;DHT22;30282;16.436;99.370;2022-12-29T06:06:09;29.30;99.90
12602;DHT22;30282;16.436;99.370;2022-12-29T06:08:39;29.30;99.90
12602;DHT22;30282;16.436;99.370;2022-12-29T06:11:08;29.30;99.90
12602;DHT22;30282;16.436;99.370;2022-12-29T06:13:37;29.30;99.90
12602;DHT22;30282;16.436;99.370;2022-12-29T06:16:06;29.20;99.90
12602;DHT22;30282;16.436;99.370;2022-12-29T06:18:35;29.30;99.90
12602;DHT22;30282;16.436;99.370;2022-12-29T06:21:05;29.20;99.90
12602;DHT22;30282;16.436;99.370;2022-12-29T06:23:34;29.20;99.90
12602;DHT22;30282;16.436;99.370;2022-12-29T06:26:05;29.10;99.90
12602;DHT22;30282;16.436;99.370;2022-12-29T06:28:34;29.10;99.90
12602;DHT22;30282;16.436;99.370;2022-12-29T06:31:03;29.20;99.90
12602;DHT22;30282;16.436;99.370;2022-12-29T06:33:32;29.10;99.90
12602;DHT22;30282;16.436;99.370;2022-12-29T06:36:01;29.20;99.90
12602;DHT22;30282;16.436;99.370;2022-12-29T06:38:30;29.20;99.90
12602;DHT22;30282;16.436;99.370;2022-12-29T06:40:59;29.20;99.90
12602;DHT22;30282;16.436;99.370;2022-12-29T06:43:30;29.20;99.90
12602;DHT22;30282;16.436;99.370;2022-12-29T06:45:58;29.20;99.90
12602;DHT22;30282;16.436;99.370;2022-12-29T06:48:27;29.20;99.90
12602;DHT22;30282;16.436;99.370;2022-12-29T06:50:56;29.20;99.90
12602;DHT22;30282;16.436;99.370;2022-12-29T06:53:25;29.40;99.90
12602;DHT22;30282;16.436;99.370;2022-12-29T06:55:54;29.30;99.90
12602;DHT22;30282;16.436;99.370;2022-12-29T06:58:23;29.20;99.90
12602;DHT22;30282;16.436;99.370;2022-12-29T07:00:54;29.10;99.90
12602;DHT22;30282;16.436;99.370;2022-12-29T07:03:23;29.10;99.90
12602;DHT22;30282;16.436;99.370;2022-12-29T07:05:52;29.20;99.90
12602;DHT22;30282;16.436;99.370;2022-12-29T07:08:21;29.20;99.90
12602;DHT22;30282;16.436;99.370;2022-12-29T07:10:50;29.30;99.90
12602;DHT22;30282;16.436;99.370;2022-12-29T07:13:19;29.30;99.90
12602;DHT22;30282;16.436;99.370;2022-12-29T07:15:48;29.40;99.90
12602;DHT22;30282;16.436;99.370;2022-12-29T07:18:19;29.40;99.90
12602;DHT22;30282;16.436;99.370;2022-12-29T07:20:48;29.40;99.90
12602;DHT22;30282;16.436;99.370;2022-12-29T07:23:17;29.30;99.90
12602;DHT22;30282;16.436;99.370;2022-12-29T07:25:46;29.40;99.90
12602;DHT22;30282;16.436;99.370;2022-12-29T07:28:15;29.40;99.90
12602;DHT22;30282;16.436;99.370;2022-12-29T07:30:45;29.50;99.90
12602;DHT22;30282;16.436;99.370;2022-12-29T07:33:14;29.60;99.90
12602;DHT22;30282;16.436;99.370;2022-12-29T07:35:45;29.50;99.90
12602;DHT22;30282;16.436;99.370;2022-12-29T07:38:14;29.50;99.90
12602;DHT22;30282;16.436;99.370;2022-12-29T07:40:43;29.50;99.90
12602;DHT22;30282;16.436;99.370;2022-12-29T07:43:12;29.40;99.90
12602;DHT22;30282;16.436;99.370;2022-12-29T07:45:41;29.40;99.90
12602;DHT22;30282;16.436;99.370;2022-12-29T07:48:10;29.40;99.90
12602;DHT22;30282;16.436;99.370;2022-12-29T07:50:39;29.40;99.90
12602;DHT22;30282;16.436;99.370;2022-12-29T07:53:09;29.40;99.90
12602;DHT22;30282;16.436;99.370;2022-12-29T07:55:38;29.40;99.90
12602;DHT22;30282;16.436;99.370;2022-12-29T07:58:07;29.30;99.90
12602;DHT22;30282;16.436;99.370;2022-12-29T08:00:36;29.40;99.90
12602;DHT22;30282;16.436;99.370;2022-12-29T08:03:06;29.30;99.90
12602;DHT22;30282;16.436;99.370;2022-12-29T08:05:35;29.30;99.90
12602;DHT22;30282;16.436;99.370;2022-12-29T08:08:04;29.30;99.90
12602;DHT22;30282;16.436;99.370;2022-12-29T08:10:34;29.40;99.90
12602;DHT22;30282;16.436;99.370;2022-12-29T08:13:03;29.40;99.90
12602;DHT22;30282;16.436;99.370;2022-12-29T08:15:32;29.30;99.90
12602;DHT22;30282;16.436;99.370;2022-12-29T08:18:01;29.20;99.90
12602;DHT22;30282;16.436;99.370;2022-12-29T08:20:31;29.10;99.90
12602;DHT22;30282;16.436;99.370;2022-12-29T08:23:00;29.10;99.90
12602;DHT22;30282;16.436;99.370;2022-12-29T08:25:29;29.10;99.90
12602;DHT22;30282;16.436;99.370;2022-12-29T08:27:59;29.10;99.90
12602;DHT22;30282;16.436;99.370;2022-12-29T08:30:28;29.10;99.90
12602;DHT22;30282;16.436;99.370;2022-12-29T08:32:57;29.20;99.90
12602;DHT22;30282;16.436;99.370;2022-12-29T08:35:26;29.20;99.90
12602;DHT22;30282;16.436;99.370;2022-12-29T08:37:55;29.10;99.90
12602;DHT22;30282;16.436;99.370;2022-12-29T08:40:24;29.10;99.90
12602;DHT22;30282;16.436;99.370;2022-12-29T08:42:53;29.20;99.90
12602;DHT22;30282;16.436;99.370;2022-12-29T08:45:24;29.20;99.90
12602;DHT22;30282;16.436;99.370;2022-12-29T08:47:53;29.30;99.90
12602;DHT22;30282;16.436;99.370;2022-12-29T08:50:23;29.30;99.90
12602;DHT22;30282;16.436;99.370;2022-12-29T08:52:52;29.30;99.90
12602;DHT22;30282;16.436;99.370;2022-12-29T08:55:21;29.30;99.90
12602;DHT22;30282;16.436;99.370;2022-12-29T08:57:59;29.30;99.90
12602;DHT22;30282;16.436;99.370;2022-12-29T09:00:29;29.20;99.90
12602;DHT22;30282;16.436;99.370;2022-12-29T09:02:58;29.20;99.90
12602;DHT22;30282;16.436;99.370;2022-12-29T09:05:27;29.20;99.90
12602;DHT22;30282;16.436;99.370;2022-12-29T09:07:56;29.10;99.90
12602;DHT22;30282;16.436;99.370;2022-12-29T09:10:25;29.00;99.90
12602;DHT22;30282;16.436;99.370;2022-12-29T09:12:54;29.00;99.90
12602;DHT22;30282;16.436;99.370;2022-12-29T09:15:23;29.10;99.90
12602;DHT22;30282;16.436;99.370;2022-12-29T09:17:53;29.10;99.90
12602;DHT22;30282;16.436;99.370;2022-12-29T09:20:22;29.10;99.90
12602;DHT22;30282;16.436;99.370;2022-12-29T09:22:51;29.00;99.90
12602;DHT22;30282;16.436;99.370;2022-12-29T09:25:20;29.00;99.90
12602;DHT22;30282;16.436;99.370;2022-12-29T09:27:50;29.00;99.90
12602;DHT22;30282;16.436;99.370;2022-12-29T09:30:22;29.00;99.90
12602;DHT22;30282;16.436;99.370;2022-12-29T09:32:53;29.00;99.90
12602;DHT22;30282;16.436;99.370;2022-12-29T09:35:22;29.00;99.90
12602;DHT22;30282;16.436;99.370;2022-12-29T09:37:51;29.00;99.90
12602;DHT22;30282;16.436;99.370;2022-12-29T09:40:27;28.90;99.90
12602;DHT22;30282;16.436;99.370;2022-12-29T09:43:21;29.00;99.90
12602;DHT22;30282;16.436;99.370;2022-12-29T09:45:58;28.90;99.90
12602;DHT22;30282;16.436;99.370;2022-12-29T09:48:34;28.90;99.90
12602;DHT22;30282;16.436;99.370;2022-12-29T09:51:10;28.90;99.90
12602;DHT22;30282;16.436;99.370;2022-12-29T09:53:42;28.80;99.90
12602;DHT22;30282;16.436;99.370;2022-12-29T09:56:15;28.70;99.90
12602;DHT22;30282;16.436;99.370;2022-12-29T09:58:50;28.70;99.90
12602;DHT22;30282;16.436;99.370;2022-12-29T10:01:27;28.70;99.90
12602;DHT22;30282;16.436;99.370;2022-12-29T10:04:00;28.60;99.90
12602;DHT22;30282;16.436;99.370;2022-12-29T10:06:37;28.50;99.90
12602;DHT22;30282;16.436;99.370;2022-12-29T10:09:13;28.40;99.90
12602;DHT22;30282;16.436;99.370;2022-12-29T10:11:54;28.30;99.90
12602;DHT22;30282;16.436;99.370;2022-12-29T10:14:37;28.30;99.90
12602;DHT22;30282;16.436;99.370;2022-12-29T10:17:19;28.30;99.90
12602;DHT22;30282;16.436;99.370;2022-12-29T10:20:02;28.30;99.90
12602;DHT22;30282;16.436;99.370;2022-12-29T10:22:46;28.20;99.90
12602;DHT22;30282;16.436;99.370;2022-12-29T10:25:19;28.10;99.90
12602;DHT22;30282;16.436;99.370;2022-12-29T10:27:48;28.10;99.90
12602;DHT22;30282;16.436;99.370;2022-12-29T10:30:18;28.10;99.90
12602;DHT22;30282;16.436;99.370;2022-12-29T10:32:49;27.90;99.90
12602;DHT22;30282;16.436;99.370;2022-12-29T10:35:22;27.70;99.90
12602;DHT22;30282;16.436;99.370;2022-12-29T10:37:57;27.60;99.90
12602;DHT22;30282;16.436;99.370;2022-12-29T10:40:31;27.50;99.90
12602;DHT22;30282;16.436;99.370;2022-12-29T10:43:12;27.40;99.90
12602;DHT22;30282;16.436;99.370;2022-12-29T10:45:43;27.30;99.90
12602;DHT22;30282;16.436;99.370;2022-12-29T10:48:18;27.20;99.90
12602;DHT22;30282;16.436;99.370;2022-12-29T10:50:50;27.10;99.90
12602;DHT22;30282;16.436;99.370;2022-12-29T10:53:24;27.10;99.90
12602;DHT22;30282;16.436;99.370;2022-12-29T10:55:55;27.00;99.90
12602;DHT22;30282;16.436;99.370;2022-12-29T10:58:25;26.90;99.90
12602;DHT22;30282;16.436;99.370;2022-12-29T11:00:55;26.80;99.90
12602;DHT22;30282;16.436;99.370;2022-12-29T11:03:39;26.70;99.90
12602;DHT22;30282;16.436;99.370;2022-12-29T11:06:15;26.60;99.90
12602;DHT22;30282;16.436;99.370;2022-12-29T11:08:52;26.50;99.90
12602;DHT22;30282;16.436;99.370;2022-12-29T11:11:26;26.40;99.90
12602;DHT22;30282;16.436;99.370;2022-12-29T11:14:03;26.50;99.90
12602;DHT22;30282;16.436;99.370;2022-12-29T11:16:37;26.30;99.90
12602;DHT22;30282;16.436;99.370;2022-12-29T11:19:05;26.20;99.90
12602;DHT22;30282;16.436;99.370;2022-12-29T11:21:37;26.20;99.90
12602;DHT22;30282;16.436;99.370;2022-12-29T11:24:21;26.10;99.90
12602;DHT22;30282;16.436;99.370;2022-12-29T11:26:51;26.10;99.90
12602;DHT22;30282;16.436;99.370;2022-12-29T11:29:26;26.20;99.90
12602;DHT22;30282;16.436;99.370;2022-12-29T11:31:57;26.20;99.90
12602;DHT22;30282;16.436;99.370;2022-12-29T11:34:30;26.10;99.90
12602;DHT22;30282;16.436;99.370;2022-12-29T11:37:04;26.10;99.90
12602;DHT22;30282;16.436;99.370;2022-12-29T11:39:38;26.00;99.90
12602;DHT22;30282;16.436;99.370;2022-12-29T11:42:14;25.90;99.90
12602;DHT22;30282;16.436;99.370;2022-12-29T11:44:45;25.60;99.90
12602;DHT22;30282;16.436;99.370;2022-12-29T11:47:23;25.50;99.90
12602;DHT22;30282;16.436;99.370;2022-12-29T11:49:57;25.40;99.90
12602;DHT22;30282;16.436;99.370;2022-12-29T11:52:31;25.40;99.90
12602;DHT22;30282;16.436;99.370;2022-12-29T11:55:13;25.30;99.90
12602;DHT22;30282;16.436;99.370;2022-12-29T11:57:45;25.30;99.90
12602;DHT22;30282;16.436;99.370;2022-12-29T12:00:16;25.30;99.90
12602;DHT22;30282;16.436;99.370;2022-12-29T12:02:52;25.20;99.90
12602;DHT22;30282;16.436;99.370;2022-12-29T12:05:30;25.10;99.90
12602;DHT22;30282;16.436;99.370;2022-12-29T12:08:07;24.90;99.90
12602;DHT22;30282;16.436;99.370;2022-12-29T12:10:42;24.80;99.90
12602;DHT22;30282;16.436;99.370;2022-12-29T12:13:19;24.80;99.90
12602;DHT22;30282;16.436;99.370;2022-12-29T12:15:54;24.80;99.90
12602;DHT22;30282;16.436;99.370;2022-12-29T12:18:37;24.80;99.90
12602;DHT22;30282;16.436;99.370;2022-12-29T12:21:16;24.90;99.90
12602;DHT22;30282;16.436;99.370;2022-12-29T12:24:15;24.70;99.90
12602;DHT22;30282;16.436;99.370;2022-12-29T12:26:59;24.70;99.90
12602;DHT22;30282;16.436;99.370;2022-12-29T12:29:36;24.70;99.90
12602;DHT22;30282;16.436;99.370;2022-12-29T12:32:13;24.80;99.90
12602;DHT22;30282;16.436;99.370;2022-12-29T12:34:45;24.80;99.90
12602;DHT22;30282;16.436;99.370;2022-12-29T12:37:39;24.80;99.90
12602;DHT22;30282;16.436;99.370;2022-12-29T12:40:31;24.80;99.90
12602;DHT22;30282;16.436;99.370;2022-12-29T12:43:17;24.70;99.90
12602;DHT22;30282;16.436;99.370;2022-12-29T12:45:56;24.60;99.90
12602;DHT22;30282;16.436;99.370;2022-12-29T12:48:46;24.50;99.90
12602;DHT22;30282;16.436;99.370;2022-12-29T12:51:20;24.40;99.90
12602;DHT22;30282;16.436;99.370;2022-12-29T12:54:02;24.50;99.90
12602;DHT22;30282;16.436;99.370;2022-12-29T12:56:52;24.40;99.90
12602;DHT22;30282;16.436;99.370;2022-12-29T12:59:34;24.40;99.90
12602;DHT22;30282;16.436;99.370;2022-12-29T13:02:17;24.40;99.90
12602;DHT22;30282;16.436;99.370;2022-12-29T13:07:53;24.30;99.90
12602;DHT22;30282;16.436;99.370;2022-12-29T13:10:34;24.00;99.90
12602;DHT22;30282;16.436;99.370;2022-12-29T13:13:24;24.00;99.90
12602;DHT22;30282;16.436;99.370;2022-12-29T13:16:02;23.90;99.90
12602;DHT22;30282;16.436;99.370;2022-12-29T13:18:41;23.80;99.90
12602;DHT22;30282;16.436;99.370;2022-12-29T13:21:19;23.70;99.90
12602;DHT22;30282;16.436;99.370;2022-12-29T13:23:55;23.40;99.90
12602;DHT22;30282;16.436;99.370;2022-12-29T13:26:30;23.40;99.90
12602;DHT22;30282;16.436;99.370;2022-12-29T13:29:06;23.30;99.90
12602;DHT22;30282;16.436;99.370;2022-12-29T13:31:46;23.30;99.90
12602;DHT22;30282;16.436;99.370;2022-12-29T13:34:23;23.20;99.90
12602;DHT22;30282;16.436;99.370;2022-12-29T13:36:58;23.20;99.90
12602;DHT22;30282;16.436;99.370;2022-12-29T13:39:30;23.20;99.90
12602;DHT22;30282;16.436;99.370;2022-12-29T13:42:02;23.20;99.90
12602;DHT22;30282;16.436;99.370;2022-12-29T13:44:35;23.20;99.90
12602;DHT22;30282;16.436;99.370;2022-12-29T13:47:18;23.20;99.90
12602;DHT22;30282;16.436;99.370;2022-12-29T13:49:50;23.20;99.90
12602;DHT22;30282;16.436;99.370;2022-12-29T13:52:27;23.20;99.90
12602;DHT22;30282;16.436;99.370;2022-12-29T13:55:01;23.20;99.90
12602;DHT22;30282;16.436;99.370;2022-12-29T13:57:41;23.10;99.90
12602;DHT22;30282;16.436;99.370;2022-12-29T14:00:16;22.90;99.90
12602;DHT22;30282;16.436;99.370;2022-12-29T14:03:01;22.80;99.90
12602;DHT22;30282;16.436;99.370;2022-12-29T14:05:38;22.70;99.90
12602;DHT22;30282;16.436;99.370;2022-12-29T14:08:15;22.70;99.90
12602;DHT22;30282;16.436;99.370;2022-12-29T14:10:50;22.70;99.90
12602;DHT22;30282;16.436;99.370;2022-12-29T14:13:27;22.60;99.90
12602;DHT22;30282;16.436;99.370;2022-12-29T14:16:02;22.60;99.90
12602;DHT22;30282;16.436;99.370;2022-12-29T14:18:40;22.60;99.90
12602;DHT22;30282;16.436;99.370;2022-12-29T14:21:18;22.50;99.90
12602;DHT22;30282;16.436;99.370;2022-12-29T14:23:51;22.40;99.90
12602;DHT22;30282;16.436;99.370;2022-12-29T14:26:34;22.30;99.90
12602;DHT22;30282;16.436;99.370;2022-12-29T14:32:39;22.20;99.90
12602;DHT22;30282;16.436;99.370;2022-12-29T14:35:39;22.30;99.90
12602;DHT22;30282;16.436;99.370;2022-12-29T14:38:27;22.30;99.90
12602;DHT22;30282;16.436;99.370;2022-12-29T14:41:28;22.20;99.90
12602;DHT22;30282;16.436;99.370;2022-12-29T14:44:01;22.20;99.90
12602;DHT22;30282;16.436;99.370;2022-12-29T14:46:47;22.20;99.90
12602;DHT22;30282;16.436;99.370;2022-12-29T14:49:22;22.20;99.90
12602;DHT22;30282;16.436;99.370;2022-12-29T14:51:53;22.20;99.90
12602;DHT22;30282;16.436;99.370;2022-12-29T14:54:47;22.20;99.90
12602;DHT22;30282;16.436;99.370;2022-12-29T14:57:29;22.10;99.90
12602;DHT22;30282;16.436;99.370;2022-12-29T15:00:07;22.00;99.90
12602;DHT22;30282;16.436;99.370;2022-12-29T15:02:45;21.90;99.90
12602;DHT22;30282;16.436;99.370;2022-12-29T15:05:30;21.70;99.90
12602;DHT22;30282;16.436;99.370;2022-12-29T15:08:01;21.70;99.90
12602;DHT22;30282;16.436;99.370;2022-12-29T15:10:39;21.70;99.90
12602;DHT22;30282;16.436;99.370;2022-12-29T15:13:17;21.70;99.90
12602;DHT22;30282;16.436;99.370;2022-12-29T15:15:47;21.70;99.90
12602;DHT22;30282;16.436;99.370;2022-12-29T15:18:23;21.60;99.90
12602;DHT22;30282;16.436;99.370;2022-12-29T15:20:56;21.70;99.90
12602;DHT22;30282;16.436;99.370;2022-12-29T15:23:27;21.60;99.90
12602;DHT22;30282;16.436;99.370;2022-12-29T15:25:59;21.50;99.90
12602;DHT22;30282;16.436;99.370;2022-12-29T15:28:37;21.40;99.90
12602;DHT22;30282;16.436;99.370;2022-12-29T15:31:11;21.40;99.90
12602;DHT22;30282;16.436;99.370;2022-12-29T15:33:42;21.50;99.90
12602;DHT22;30282;16.436;99.370;2022-12-29T15:36:22;21.30;99.90
12602;DHT22;30282;16.436;99.370;2022-12-29T15:38:51;21.30;99.90
12602;DHT22;30282;16.436;99.370;2022-12-29T15:41:30;21.20;99.90
12602;DHT22;30282;16.436;99.370;2022-12-29T15:44:25;21.20;99.90
12602;DHT22;30282;16.436;99.370;2022-12-29T15:46:54;21.30;99.90
12602;DHT22;30282;16.436;99.370;2022-12-29T15:49:24;21.40;99.90
12602;DHT22;30282;16.436;99.370;2022-12-29T15:51:55;21.50;99.90
12602;DHT22;30282;16.436;99.370;2022-12-29T15:54:24;21.50;99.90
12602;DHT22;30282;16.436;99.370;2022-12-29T15:56:55;21.60;99.90
12602;DHT22;30282;16.436;99.370;2022-12-29T15:59:25;21.60;99.90
12602;DHT22;30282;16.436;99.370;2022-12-29T16:01:55;21.60;99.90
12602;DHT22;30282;16.436;99.370;2022-12-29T16:04:25;21.50;99.90
12602;DHT22;30282;16.436;99.370;2022-12-29T16:06:58;21.40;99.90
12602;DHT22;30282;16.436;99.370;2022-12-29T16:09:32;21.20;99.90
12602;DHT22;30282;16.436;99.370;2022-12-29T16:12:04;21.10;99.90
12602;DHT22;30282;16.436;99.370;2022-12-29T16:14:39;21.00;99.90